Search METAR Data

METAR Data for ENSS:

ENSS 241520Z 12009KT 9999 BKN006 03/01 Q1017 RMK WIND 0500FT 10011KT